Currently 70°F in Simi Valley, California, USA
70°F
79°F / 49°F
12 mph NE
0.01"
Thursday, December 14, 2017 8:37 PM PST

Simi Valley, California Climate Summary
Typical May Day

Normal High:    76.5°F (24.7°C)
Normal Low:    53.0°F (11.7°C)
Average:    64.1°F (17.8°C)

Hour    Temperature    Wind Speed    Humidity
12:00 AM    58°F (14°C)    2 mph    71%
1:00 AM    57°F (14°C)    2 mph    72%
2:00 AM    56°F (14°C)    2 mph    73%
3:00 AM    56°F (13°C)    2 mph    74%
4:00 AM    55°F (13°C)    2 mph    75%
5:00 AM    55°F (13°C)    2 mph    76%
6:00 AM    54°F (12°C)    2 mph    77%
7:00 AM    55°F (13°C)    2 mph    78%
8:00 AM    59°F (15°C)    2 mph    74%
9:00 AM    63°F (17°C)    3 mph    68%
10:00 AM    67°F (20°C)    4 mph    60%
11:00 AM    71°F (21°C)    5 mph    54%
12:00 PM    73°F (23°C)    6 mph    50%
1:00 PM    74°F (24°C)    7 mph    48%
2:00 PM    75°F (24°C)    7 mph    48%
3:00 PM    75°F (24°C)    7 mph    47%
4:00 PM    74°F (23°C)    7 mph    47%
5:00 PM    73°F (23°C)    7 mph    49%
6:00 PM    71°F (22°C)    6 mph    51%
7:00 PM    69°F (21°C)    5 mph    55%
8:00 PM    65°F (18°C)    3 mph    62%
9:00 PM    62°F (17°C)    2 mph    67%
10:00 PM    61°F (16°C)    2 mph    69%
11:00 PM    59°F (15°C)    2 mph    71%
 

The Simi Valley, California weather pages are a service of WeatherCurrents.
Copyright ©Thu Dec 14 20:38:36 PST 2017  WeatherCurrents. All rights reserved. - Submit questions and comments - Privacy Policy